logo
Search for airport 
image banner adimage banner adimage banner ad
image banner ad

EPROS - Rostki

Located in , Poland

ICAO - , IATA -

Data provided by Airmate  

General information

Coordinates: N53°42'32" E21°54'26"
Elevation is 374 feet MSL.
 
View others Airports in Warmia-Masuria

Operational data

Special qualification required
Current time UTC:
Current local time:
Weather at : EPSY - Olsztyn - Mazury ( 69 km )
METAR: EPSY 240630Z VRB03KT CAVOK 11/10 Q1023
TAF: TAF EPSY 240530Z 2406/2415 30005KT CAVOK
View NOTAMs / SUP AIP / TFR affecting this airport [VIEW]
Communications frequencies: [VIEW]

Runways:

RWY identifierQFULength (ft)Width (ft)SurfaceLDA (ft)
08-1°6562164GRASS
26-1°6562164GRASS

Airport contact information

Address: Poland

Satellite view of EPROS